LOWILXGB

Guest
Details From LOWI - Innsbruck Kranebitten
To LXGB - Gibraltar
Flight Number -
Tags Generated
Created
Modified
Stats Distance 1,007 nm / 1,865 km
Max Altitude 0 ft / 0 m
Waypoints 6
Social Downloads 5
Likes 0
Share VATSIM

Download

Looking for another format? Having issues loading an existing format? Contact us
Advertisement - Login to hide

Notes

Generated

Route

LOWI TOSMI POBIL VAB BRIKE LXGB

ID Type Via Altitude Latitude Longitude Leg Dist Tot Dist Heading (true) Name
O LOWI APT - 0 ft / 0 m 47.25883˚ 11.33091˚ - 0 nm - -
TOSMI FIX - 0 ft / 0 m 44.99389˚ 6.98222˚ 226 nm 226 nm 235° / 232° -
POBIL FIX - 0 ft / 0 m 41.75967˚ 1.82061˚ 297 nm 523 nm 231° / 227° -
VAB VOR - 0 ft / 0 m 38.94381˚ -2.00267˚ 243 nm 767 nm 227° / 225° ALBACETE VOR-DME
BRIKE FIX - 0 ft / 0 m 36.50478˚ -5.41645˚ 218 nm 985 nm 229° / 227° -
O LXGB APT - 0 ft / 0 m 36.15080˚ -5.35977˚ 21 nm 1006 nm 173° / 173° -

Altitude Profile

Advertisement - Login to hide

Weather


0- 5 10 15 20 25 30 35+ Temperature / ° C

Clouds and Precipitation
Forecast for 2018-01-22 06:00 UTC. Updated an hour ago

Ground ~20,000 ft ~40,000 ft Winds

LOWI

Details ICAO LOWI (INN)
Name Innsbruck Kranebitten
Region Austria
Timezone Europe/Vienna (UTC+1.0)
Stats Elevation 1,906 ft / 581 m (AMSL)
Location 47.260226° 11.343967°
Runways 1
Magnetic Variation 3.031° E

METAR

LOWI 220150Z AUTO VRB02KT 1700 R08/P1500N R26/P1500U SN FEW003 BKN009 M02/M02 Q1015

Decode

TAF

TAF LOWI 212315Z 2200/2224 27007KT 5000 -SN SCT010 BKN030 TX03/2214Z TNM02/2200Z TEMPO 2200/2208 1500 SN SCT005 BKN010 PROB30 TEMPO 2200/2208 0500 SN VV008 BECMG 2208/2210 8000 -RASN SCT015 BKN030 BECMG 2210/2212 -RA TEMPO 2212/2222 5000 RA FEW005 BKN020

Decode

Departure Runways

ID Width Length Bearing (true) Bearing (mag) Surface Threshold Offset Overrun Length
08 148 ft / 45 m 6,545 ft / 1,995 m 81.02° 77.99° Asphalt 338 ft / 103 m 0 ft / 0 m
26 148 ft / 45 m 6,545 ft / 1,995 m 261.04° 258.01° Asphalt 0 ft / 0 m 0 ft / 0 m

LXGB

Details ICAO LXGB (GIB)
Name Gibraltar
Region Gibralter
Timezone Europe/Gibraltar (UTC+1.0)
Stats Elevation 15 ft / 5 m (AMSL)
Location 36.151209° -5.349664°
Runways 1
Magnetic Variation 1.111° W

METAR

LXGB 220150Z AUTO 25013KT 9999 // NCD 14/10 Q1027

Decode

TAF

Not found

Destination Runways

ID Width Length Bearing (true) Bearing (mag) Surface Threshold Offset Overrun Length
27 151 ft / 46 m 5,992 ft / 1,826 m 267.56° 268.67° Asphalt 367 ft / 112 m 89 ft / 27 m
9 151 ft / 46 m 5,992 ft / 1,826 m 87.54° 88.65° Asphalt 299 ft / 91 m 52 ft / 16 m

Popular Alternatives